Antholz Obertal
31.08.2026, 15:45
Daten in Echtzeit















57 Messstationen
| Favoriten | Station | Höhe | Datum - Uhrzeit |
t (°C) |
N (mm) |
ff (km/h) |
bb (km/h) |
dd |
rH (%) |
p (hPa) |
sd (h) |
EG (W/m²) |
|---|---|---|---|---|---|---|---|---|---|---|---|---|
| Antholz Obertal | 1327 m | 31.08.2026, 15:45 | 21.0 | 0.1 | 11.5 | 14.8 | O(82.1°) | 73 | 1010.7 | 01:49 | 312 | |
| Auer | 254 m | 31.08.2026, 15:45 | 32.5 | 0.0 | - | - | - | 43 | 1010.0 | 04:54 | 660 | |
| Barbian Kollmann | 463 m | 31.08.2026, 15:45 | 30.2 | 0.0 | 18.0 | 29.9 | S(184.5°) | 35 | 1009.1 | 06:29 | 652 | |
| Bozen | 245 m | 31.08.2026, 15:45 | 32.0 | 0.0 | 2.9 | 7.9 | SO(134.3°) | 34 | 1009.9 | 08:19 | 674 | |
| Branzoll | 227 m | 31.08.2026, 15:45 | 32.7 | 0.0 | 14.0 | 25.6 | S(189°) | 37 | 1009.2 | 07:15 | 697 | |
| Brixen - Vahrn | 585 m | 31.08.2026, 15:45 | 30.8 | 0.0 | 15.5 | 24.5 | S(186.6°) | 40 | 1008.6 | 07:02 | 699 | |
| Bruneck | 831 m | 31.08.2026, 15:45 | 27.5 | 0.0 | 8.6 | 14.4 | NW(309.2°) | 40 | 1009.5 | 07:42 | 435 | |
| Corvara | 1530 m | 31.08.2026, 15:45 | 21.2 | 0.0 | 5.0 | 9.7 | W(271.5°) | 54 | 1009.7 | 05:14 | 202 | |
| Deutschnofen | 1470 m | 31.08.2026, 15:45 | 20.9 | 0.0 | 14.0 | 18.7 | SW(237.6°) | 61 | 1010.1 | 08:06 | 716 | |
| Franzensfeste Grasstein | 833 m | 31.08.2026, 15:45 | 24.0 | 0.0 | 1.8 | 4.7 | S(181.2°) | 61 | 1009.1 | - | - | |
| Gargazon | 253 m | 31.08.2026, 15:45 | 31.2 | 0.0 | 6.5 | 13.7 | SO(156.7°) | 44 | 1010.6 | 06:58 | 587 | |
| Hintermartell | 1714 m | 31.08.2026, 15:45 | 20.2 | 0.0 | 2.9 | 9.0 | NO(25.8°) | 55 | 1012.4 | 05:15 | 405 | |
| Jenesien | 972 m | 31.08.2026, 15:45 | 26.5 | 0.0 | 4.3 | 10.4 | SO(149°) | 50 | 1010.3 | 06:59 | 683 | |
| Kaltern Oberplanitzing | 492 m | 31.08.2026, 15:45 | 29.9 | 0.0 | 9.0 | 21.2 | S(178.3°) | 45 | 1011.0 | 08:21 | 666 | |
| Karerpass | 1713 m | 31.08.2026, 15:45 | 19.7 | 0.0 | 6.1 | 14.0 | W(280.1°) | 59 | 1010.0 | 05:56 | 267 | |
| Laas Eyrs | 874 m | 31.08.2026, 15:45 | 27.4 | 0.0 | 15.5 | 25.2 | O(94°) | 50 | 1008.7 | 08:09 | 704 | |
| Laimburg | 224 m | 31.08.2026, 15:45 | 32.7 | 0.0 | 11.2 | 24.1 | S(165.2°) | 36 | 1011.8 | 07:32 | 658 | |
| Langtaufers Grub | 1844 m | 31.08.2026, 15:45 | 20.9 | 0.0 | 19.1 | 24.8 | SW(234.7°) | 46 | 1007.4 | 04:43 | 784 | |
| Marienberg | 1312 m | 31.08.2026, 15:45 | 22.7 | 0.0 | - | - | - | 51 | 1009.4 | 06:48 | 809 | |
| Meran | 333 m | 31.08.2026, 15:45 | 31.6 | 0.0 | 2.2 | 6.8 | NO(30°) | 44 | 1010.2 | 06:57 | 694 | |
| Mühlwald | 1140 m | 31.08.2026, 15:45 | 24.6 | 0.0 | - | - | - | 46 | 1010.1 | - | - | |
| Naturns | 537 m | 31.08.2026, 15:45 | 30.9 | 0.0 | 15.8 | 30.6 | O(70.7°) | 36 | 1010.2 | 07:36 | 709 | |
| Obervintl | 747 m | 31.08.2026, 15:45 | 29.5 | 0.0 | 16.6 | 27.4 | NW(306.3°) | 34 | 1009.5 | 06:57 | 692 | |
| Pens | 1452 m | 31.08.2026, 15:45 | 23.5 | 0.0 | - | - | - | 51 | 1009.1 | - | - | |
| Pfelders | 1622 m | 31.08.2026, 15:45 | 19.9 | 0.0 | 9.0 | 13.7 | NO(60.4°) | 63 | 1010.2 | 05:21 | 431 | |
| Pfitsch St. Jakob | 1438 m | 31.08.2026, 15:45 | 20.2 | 0.7 | 2.9 | 5.0 | SO(119.2°) | 71 | 1010.5 | 03:20 | 350 | |
| Pflersch | 1152 m | 31.08.2026, 15:45 | 23.5 | 1.1 | 2.9 | 6.8 | NW(301.2°) | 59 | 1009.9 | 03:06 | 489 | |
| Pfunders | 1169 m | 31.08.2026, 15:45 | 23.7 | 0.0 | 4.3 | 9.4 | NW(302.9°) | 18 | 1009.1 | 03:05 | 720 | |
| Platt in Passeier | 1143 m | 31.08.2026, 15:45 | 24.1 | 0.0 | 4.0 | 10.8 | O(93.4°) | 49 | 1009.9 | 05:39 | 550 | |
| Prettau | 1448 m | 31.08.2026, 15:45 | 23.3 | 0.6 | 5.0 | 19.8 | SW(226.9°) | 51 | 1008.4 | 03:11 | 802 | |
| Radein | 1550 m | 31.08.2026, 15:45 | 22.4 | 0.0 | 4.0 | 12.6 | NW(295.8°) | 63 | 1010.2 | 06:15 | 378 | |
| Rein in Taufers | 1562 m | 31.08.2026, 15:45 | 20.1 | 0.0 | 5.4 | 11.5 | SO(133.2°) | 61 | 1010.0 | 05:01 | 289 | |
| Ridnaun | 1365 m | 31.08.2026, 15:45 | 22.3 | 0.0 | - | - | - | 50 | 1013.4 | - | - | |
| Ritten Siffian | 989 m | 31.08.2026, 15:45 | 25.5 | 0.0 | 14.0 | 20.9 | W(261.7°) | 43 | 1010.4 | 07:33 | 694 | |
| Salurn | 214 m | 31.08.2026, 15:45 | 31.0 | 0.0 | 21.2 | 28.8 | W(276.8°) | 37 | 1011.5 | 00:58 | 75 | |
| Sand i.T. Mühlen | 850 m | 31.08.2026, 15:45 | 24.6 | 0.0 | 2.9 | 5.8 | W(273.8°) | 72 | 1010.0 | 02:53 | 177 | |
| Sarnthein | 970 m | 31.08.2026, 15:45 | 26.2 | 0.0 | 18.0 | 26.3 | SO(150.9°) | 50 | 1010.0 | 06:45 | 708 | |
| Schlanders | 698 m | 31.08.2026, 15:45 | 27.7 | 0.0 | 14.4 | 22.7 | SO(129°) | 59 | 1009.5 | 07:13 | 379 | |
| Schnals Vernagt | 1697 m | 31.08.2026, 15:45 | 18.3 | 0.0 | - | - | - | 78 | 1012.2 | - | - | |
| Sexten | 1322 m | 31.08.2026, 15:45 | 21.7 | 0.0 | 7.2 | 18.7 | SO(145.7°) | 56 | 1008.5 | 05:20 | 182 | |
| St. Magdalena in Gsies | 1414 m | 31.08.2026, 15:45 | 19.5 | 0.0 | 8.6 | 14.0 | N(13.2°) | 77 | 1015.0 | 03:08 | 128 | |
| St. Martin in Passeier | 588 m | 31.08.2026, 15:45 | 28.2 | 0.0 | 4.3 | 9.4 | SW(219.6°) | 50 | 1011.4 | 04:55 | 309 | |
| St. Martin in Thurn | 1151 m | 31.08.2026, 15:45 | 22.7 | 0.0 | 7.2 | 12.2 | S(167°) | 69 | 1012.5 | 05:18 | 323 | |
| St. Valentin a.d. Haide | 1500 m | 31.08.2026, 15:45 | 20.1 | 0.0 | 9.0 | 16.9 | S(202.2°) | 58 | 1009.9 | 05:15 | 128 | |
| St. Veit in Prags | 1350 m | 31.08.2026, 15:45 | 19.8 | 0.0 | - | - | - | 80 | 1013.3 | - | - | |
| St. Walburg | 1142 m | 31.08.2026, 15:45 | 23.5 | 0.0 | 4.0 | 7.9 | NO(47.2°) | 60 | 1010.8 | 04:14 | 146 | |
| Sterzing | 939 m | 31.08.2026, 15:45 | 27.5 | 0.0 | 6.1 | 9.7 | O(96.4°) | 46 | 1009.9 | 05:52 | 621 | |
| Sulden | 1902 m | 31.08.2026, 15:45 | 17.3 | 0.0 | - | - | - | 64 | 1010.1 | 04:33 | 118 | |
| Terenten | 1350 m | 31.08.2026, 15:45 | 24.4 | 0.0 | 10.4 | 20.2 | W(268.8°) | 44 | 1008.6 | 07:23 | 700 | |
| Toblach | 1218 m | 31.08.2026, 15:45 | 23.8 | 0.0 | 14.0 | 21.2 | O(93.3°) | 50 | 1010.6 | 06:27 | 435 | |
| Ulten Weißbrunn | 1883 m | 31.08.2026, 15:45 | 18.1 | 0.0 | - | - | - | 62 | 1011.0 | 06:08 | 386 | |
| Vals | 1409 m | 31.08.2026, 15:45 | 21.7 | 0.0 | 9.7 | 13.7 | S(157.9°) | 56 | 1010.7 | 04:08 | 344 | |
| Villnöss | 1327 m | 31.08.2026, 15:45 | 23.7 | 0.0 | 6.5 | 15.5 | SW(215.1°) | 45 | 1009.6 | 07:26 | 694 | |
| Völs am Schlern | 840 m | 31.08.2026, 15:45 | 28.0 | 0.0 | 6.1 | 15.1 | SW(234.5°) | 39 | 1012.7 | 07:04 | 669 | |
| Welsberg | 1129 m | 31.08.2026, 15:45 | 23.2 | 0.0 | 2.2 | 4.3 | S(159.6°) | 68 | 1010.6 | 07:39 | 365 | |
| Welschnofen | 1126 m | 31.08.2026, 15:45 | 24.2 | 0.0 | - | - | - | 53 | 1011.2 | 06:56 | 117 | |
| Wolkenstein | 1594 m | 31.08.2026, 15:45 | 19.3 | 0.0 | - | - | - | 69 | 1010.9 | - | - |
Legende mit den gemessenen Werten:
t:Lufttemperatur (°C)
N:Niederschlagssumme seit Mitternacht (mm)
ff:Mittlere Windgeschwindigkeit (km/h)
bb:Windböe (km/h)
dd:Windrichtung
rH:Relative Luftfeuchtigkeit (%)
p:Luftdruck (hPa)
sd:Sonnenscheindauer (h)
EG:Globalstrahlung (W/m²)